createdAt,value
2024-04-18T00:01:00.930Z,91619.25
2024-04-18T00:02:32.743Z,91615.19
2024-04-18T00:04:05.332Z,91617.06
2024-04-18T00:05:37.505Z,91621.63
2024-04-18T00:07:09.585Z,91618.97
2024-04-18T00:08:41.918Z,91620.06
2024-04-18T00:10:14.038Z,91619.91
2024-04-18T00:11:47.600Z,91619.59
2024-04-18T00:13:20.274Z,91615.84
2024-04-18T00:14:52.325Z,91607.66
2024-04-18T00:16:24.586Z,91609.72
2024-04-18T00:17:56.773Z,91610.03
2024-04-18T00:19:28.543Z,91619.94
2024-04-18T00:21:00.197Z,91626.38
2024-04-18T00:22:32.178Z,91626.69
2024-04-18T00:24:04.405Z,91631.25
2024-04-18T00:25:36.191Z,91625.91
2024-04-18T00:27:07.890Z,91629.03
2024-04-18T00:28:39.623Z,91626.38
2024-04-18T00:30:11.638Z,91624.81
2024-04-18T00:31:43.482Z,91621.50
2024-04-18T00:33:15.410Z,91617.88
2024-04-18T00:34:47.118Z,91624.31
2024-04-18T00:36:18.860Z,91622.59
2024-04-18T00:37:50.793Z,91608.94
2024-04-18T00:39:22.787Z,91610.03
2024-04-18T00:40:55.042Z,91613.97
2024-04-18T00:42:27.106Z,91610.03
2024-04-18T00:44:01.757Z,91610.19
2024-04-18T00:45:35.252Z,91614.56
2024-04-18T00:47:06.920Z,91617.41
2024-04-18T00:48:38.810Z,91625.44
2024-04-18T00:50:11.274Z,91622.75
2024-04-18T00:51:43.405Z,91625.88
2024-04-18T00:53:15.074Z,91624.94
2024-04-18T00:54:47.324Z,91628.84
2024-04-18T00:56:19.150Z,91627.28
2024-04-18T00:57:51.086Z,91646.59
2024-04-18T00:59:23.100Z,91650.50
2024-04-18T01:00:55.617Z,91641.72
2024-04-18T01:02:27.975Z,91640.63
2024-04-18T01:04:00.391Z,91641.41
2024-04-18T01:05:32.731Z,91632.63
2024-04-18T01:07:04.447Z,91636.38
2024-04-18T01:08:36.117Z,91634.97
2024-04-18T01:10:08.044Z,91634.38
2024-04-18T01:11:39.825Z,91634.38
2024-04-18T01:13:11.894Z,91634.97
2024-04-18T01:14:43.590Z,91626.78
2024-04-18T01:16:16.139Z,91629.47
2024-04-18T01:17:47.865Z,91630.25
2024-04-18T01:19:20.210Z,91626.97
2024-04-18T01:20:52.082Z,91620.06
2024-04-18T01:22:23.953Z,91621.16
2024-04-18T01:23:56.074Z,91625.22
2024-04-18T01:25:28.259Z,91626.34
2024-04-18T01:27:00.562Z,91620.06
2024-04-18T01:28:32.377Z,91621.16
2024-04-18T01:30:04.160Z,91623.81
2024-04-18T01:31:35.817Z,91620.22
2024-04-18T01:33:07.974Z,91629.31
2024-04-18T01:34:40.071Z,91635.28
2024-04-18T01:36:12.075Z,91632.91
2024-04-18T01:37:44.367Z,91630.56
2024-04-18T01:39:16.327Z,91629.63
2024-04-18T01:40:48.266Z,91632.72
2024-04-18T01:42:19.986Z,91633.97
2024-04-18T01:43:51.689Z,91630.66
2024-04-18T01:45:23.642Z,91636.00
2024-04-18T01:46:55.725Z,91639.75
2024-04-18T01:48:27.891Z,91642.72
2024-04-18T01:50:02.608Z,91644.63
2024-04-18T01:51:34.782Z,91646.81
2024-04-18T01:53:06.541Z,91649.97
2024-04-18T01:54:38.300Z,91650.59
2024-04-18T01:56:10.079Z,91650.28
2024-04-18T01:57:42.374Z,91652.31
2024-04-18T01:59:14.115Z,91657.03
2024-04-18T02:00:45.973Z,91654.84
2024-04-18T02:02:18.599Z,91643.69
2024-04-18T02:03:50.887Z,91647.16
2024-04-18T02:05:22.628Z,91637.88
2024-04-18T02:06:54.492Z,91633.97
2024-04-18T02:08:26.306Z,91642.41
2024-04-18T02:09:58.186Z,91651.69
2024-04-18T02:11:29.948Z,91646.53
2024-04-18T02:13:01.721Z,91642.28
2024-04-18T02:14:33.376Z,91648.41
2024-04-18T02:16:05.976Z,91650.13
2024-04-18T02:17:37.743Z,91641.81
2024-04-18T02:19:09.433Z,91641.81
2024-04-18T02:20:41.098Z,91639.94
2024-04-18T02:22:12.786Z,91647.81
2024-04-18T02:23:45.009Z,91649.69
2024-04-18T02:25:16.775Z,91647.03
2024-04-18T02:26:51.269Z,91655.94
2024-04-18T02:28:23.172Z,91650.78
2024-04-18T02:29:54.982Z,91645.75
2024-04-18T02:31:26.748Z,91641.34
2024-04-18T02:32:58.769Z,91649.69
2024-04-18T02:34:30.710Z,91662.53
2024-04-18T02:36:02.722Z,91661.28
2024-04-18T02:37:35.229Z,91667.41
2024-04-18T02:39:06.866Z,91668.50
2024-04-18T02:40:39.005Z,91664.41
2024-04-18T02:42:13.165Z,91662.53
2024-04-18T02:43:45.201Z,91670.25
2024-04-18T02:45:17.035Z,91667.88
2024-04-18T02:46:48.785Z,91662.53
2024-04-18T02:48:20.568Z,91660.34
2024-04-18T02:49:52.473Z,91671.63
2024-04-18T02:51:24.284Z,91666.31
2024-04-18T02:52:56.497Z,91669.44
2024-04-18T02:54:28.501Z,91670.25
2024-04-18T02:56:00.953Z,91676.38
2024-04-18T02:57:33.117Z,91677.44
2024-04-18T02:59:04.854Z,91673.69
2024-04-18T03:00:37.164Z,91666.16
2024-04-18T03:02:09.013Z,91675.72
2024-04-18T03:03:41.127Z,91680.28
2024-04-18T03:05:13.299Z,91679.03
2024-04-18T03:06:49.053Z,91681.53
2024-04-18T03:08:20.923Z,91679.63
2024-04-18T03:09:54.211Z,91678.38
2024-04-18T03:11:26.058Z,91674.13
2024-04-18T03:12:57.824Z,91678.53
2024-04-18T03:14:29.929Z,91685.88
2024-04-18T03:16:01.614Z,91682.31
2024-04-18T03:17:33.447Z,91685.94
2024-04-18T03:19:11.716Z,91682.63
2024-04-18T03:20:51.932Z,91691.28
2024-04-18T03:22:23.589Z,91691.44
2024-04-18T03:23:55.494Z,91680.94
2024-04-18T03:25:27.116Z,91674.34
2024-04-18T03:26:58.889Z,91680.78
2024-04-18T03:28:30.841Z,91672.75
2024-04-18T03:30:02.686Z,91695.69
2024-04-18T03:31:34.481Z,91691.63
2024-04-18T03:33:06.176Z,91701.38
2024-04-18T03:34:37.920Z,91703.75
2024-04-18T03:36:11.541Z,91704.34
2024-04-18T03:37:43.294Z,91707.81
2024-04-18T03:39:14.978Z,91705.63
2024-04-18T03:40:57.006Z,91718.47
2024-04-18T03:42:28.928Z,91719.56
2024-04-18T03:44:00.890Z,91731.66
2024-04-18T03:45:32.807Z,91728.97
2024-04-18T03:47:04.948Z,91730.06
2024-04-18T03:48:36.785Z,91739.66
2024-04-18T03:50:09.291Z,91739.66
2024-04-18T03:51:41.170Z,91735.59
2024-04-18T03:53:12.891Z,91746.25
2024-04-18T03:54:56.113Z,91747.84
2024-04-18T03:56:33.679Z,91753.19
2024-04-18T03:58:05.427Z,91749.72
2024-04-18T03:59:37.099Z,91747.53
2024-04-18T04:01:08.892Z,91749.41
2024-04-18T04:02:40.672Z,91761.97
2024-04-18T04:04:12.468Z,91756.31
2024-04-18T04:05:44.385Z,91762.13
2024-04-18T04:07:16.250Z,91773.59
2024-04-18T04:08:48.213Z,91774.84
2024-04-18T04:10:20.067Z,91778.50
2024-04-18T04:11:51.790Z,91778.97
2024-04-18T04:13:23.554Z,91778.66
2024-04-18T04:14:55.416Z,91779.75
2024-04-18T04:16:27.963Z,91780.56
2024-04-18T04:17:59.931Z,91786.81
2024-04-18T04:19:31.986Z,91785.25
2024-04-18T04:21:04.358Z,91782.28
2024-04-18T04:22:36.659Z,91787.31
2024-04-18T04:24:08.494Z,91783.53
2024-04-18T04:25:40.445Z,91784.94
2024-04-18T04:27:12.183Z,91797.69
2024-04-18T04:28:44.178Z,91798.00
2024-04-18T04:30:16.377Z,91797.69
2024-04-18T04:31:48.472Z,91800.84
2024-04-18T04:33:21.030Z,91791.41
2024-04-18T04:34:52.907Z,91806.03
2024-04-18T04:36:25.745Z,91803.53
2024-04-18T04:37:58.892Z,91802.75
2024-04-18T04:39:30.574Z,91815.00
2024-04-18T04:41:02.246Z,91814.69
2024-04-18T04:42:34.403Z,91819.88
2024-04-18T04:44:06.287Z,91816.41
2024-04-18T04:45:38.059Z,91820.53
2024-04-18T04:47:09.778Z,91832.44
2024-04-18T04:48:41.670Z,91827.88
2024-04-18T04:50:13.542Z,91831.03
2024-04-18T04:51:45.259Z,91829.16
2024-04-18T04:53:17.044Z,91823.34
2024-04-18T04:54:49.227Z,91833.22
2024-04-18T04:56:20.986Z,91836.69
2024-04-18T04:57:53.043Z,91830.56
2024-04-18T04:59:24.812Z,91834.81
2024-04-18T05:00:58.221Z,91830.56
2024-04-18T05:02:30.274Z,91825.69
2024-04-18T05:04:02.053Z,91835.16
2024-04-18T05:05:34.014Z,91834.53
2024-04-18T05:07:05.775Z,91832.34
2024-04-18T05:08:37.735Z,91834.69
2024-04-18T05:10:09.443Z,91839.06
2024-04-18T05:11:41.202Z,91840.03
2024-04-18T05:13:13.127Z,91843.03
2024-04-18T05:14:45.006Z,91852.19
2024-04-18T05:16:17.114Z,91853.13
2024-04-18T05:17:48.812Z,91855.19
2024-04-18T05:19:23.544Z,91854.09
2024-04-18T05:20:55.297Z,91854.28
2024-04-18T05:22:27.104Z,91857.09
2024-04-18T05:23:59.252Z,91857.56
2024-04-18T05:25:31.061Z,91852.22
2024-04-18T05:27:02.928Z,91861.19
2024-04-18T05:29:03.308Z,91852.56
2024-04-18T05:30:53.677Z,91853.66
2024-04-18T05:32:27.546Z,91860.78
2024-04-18T05:33:59.412Z,91851.81
2024-04-18T05:35:31.114Z,91852.63
2024-04-18T05:37:04.637Z,91853.41
2024-04-18T05:38:36.759Z,91852.91
2024-04-18T05:40:08.849Z,91855.75
2024-04-18T05:41:40.733Z,91857.19
2024-04-18T05:43:12.378Z,91856.56
2024-04-18T05:44:44.174Z,91859.09
2024-04-18T05:46:16.591Z,91863.81
2024-04-18T05:47:48.334Z,91863.94
2024-04-18T05:49:22.477Z,91861.94
2024-04-18T05:50:54.251Z,91863.63
2024-04-18T05:52:25.962Z,91863.97
2024-04-18T05:53:57.997Z,91868.66
2024-04-18T05:55:29.679Z,91869.16
2024-04-18T05:57:01.796Z,91871.97
2024-04-18T05:58:36.656Z,91869.78
2024-04-18T06:00:08.561Z,91869.13
2024-04-18T06:01:40.266Z,91868.16
2024-04-18T06:03:12.013Z,91869.09
2024-04-18T06:04:44.293Z,91866.84
2024-04-18T06:06:16.083Z,91868.88
2024-04-18T06:07:47.896Z,91866.78
2024-04-18T06:09:20.249Z,91866.31
2024-04-18T06:10:51.951Z,91866.72
2024-04-18T06:12:23.724Z,91864.00
2024-04-18T06:13:55.717Z,91870.63
2024-04-18T06:15:28.123Z,91863.06
2024-04-18T06:17:00.251Z,91874.06
2024-04-18T06:18:32.126Z,91873.84
2024-04-18T06:20:04.498Z,91871.81
2024-04-18T06:21:37.012Z,91872.88
2024-04-18T06:23:10.256Z,91876.81
2024-04-18T06:24:43.263Z,91878.84
2024-04-18T06:26:17.016Z,91882.44
2024-04-18T06:27:48.972Z,91879.59
2024-04-18T06:29:20.746Z,91881.41
2024-04-18T06:30:53.420Z,91876.53
2024-04-18T06:32:25.458Z,91878.88
2024-04-18T06:33:57.265Z,91873.31
2024-04-18T06:35:28.951Z,91876.00
2024-04-18T06:37:00.689Z,91879.94
2024-04-18T06:38:33.374Z,91880.72
2024-04-18T06:40:05.972Z,91887.34
2024-04-18T06:41:37.924Z,91890.81
2024-04-18T06:43:09.753Z,91899.78
2024-04-18T06:44:41.457Z,91895.00
2024-04-18T06:46:14.037Z,91893.25
2024-04-18T06:47:46.656Z,91889.56
2024-04-18T06:49:18.921Z,91887.94
2024-04-18T06:50:50.710Z,91889.31
2024-04-18T06:52:22.460Z,91881.25
2024-04-18T06:53:54.281Z,91885.50
2024-04-18T06:55:26.375Z,91883.44
2024-04-18T06:56:58.098Z,91890.81
2024-04-18T06:58:29.805Z,91895.66
2024-04-18T07:00:01.896Z,91889.19
2024-04-18T07:01:33.972Z,91895.34
2024-04-18T07:03:08.254Z,91889.84
2024-04-18T07:04:40.182Z,91902.59
2024-04-18T07:06:12.604Z,91898.63
2024-04-18T07:07:44.363Z,91901.47
2024-04-18T07:09:16.341Z,91903.91
2024-04-18T07:10:48.311Z,91913.22
2024-04-18T07:12:20.171Z,91910.88
2024-04-18T07:13:54.104Z,91915.28
2024-04-18T07:15:25.877Z,91919.78
2024-04-18T07:17:00.876Z,91919.31
2024-04-18T07:18:34.062Z,91915.09
2024-04-18T07:20:06.232Z,91925.16
2024-04-18T07:21:38.235Z,91917.72
2024-04-18T07:23:10.342Z,91913.13
2024-04-18T07:24:45.775Z,91917.44
2024-04-18T07:26:17.591Z,91923.59
2024-04-18T07:27:50.272Z,91914.44
2024-04-18T07:29:22.615Z,91919.16
2024-04-18T07:30:54.581Z,91918.50
2024-04-18T07:32:26.426Z,91917.56
2024-04-18T07:33:58.282Z,91911.56
2024-04-18T07:35:30.027Z,91917.72
2024-04-18T07:37:01.892Z,91919.56
2024-04-18T07:38:33.948Z,91918.91
2024-04-18T07:40:12.631Z,91925.84
2024-04-18T07:41:44.391Z,91929.59
2024-04-18T07:43:16.228Z,91931.22
2024-04-18T07:44:47.910Z,91931.94
2024-04-18T07:46:20.334Z,91937.59
2024-04-18T07:47:52.285Z,91930.28
2024-04-18T07:49:24.240Z,91936.16
2024-04-18T07:50:56.033Z,91937.53
2024-04-18T07:52:27.999Z,91936.69
2024-04-18T07:54:00.516Z,91939.69
2024-04-18T07:55:32.848Z,91937.06
2024-04-18T07:57:05.345Z,91938.97
2024-04-18T07:58:38.436Z,91938.84
2024-04-18T08:00:11.614Z,91940.41
2024-04-18T08:01:45.124Z,91941.28
2024-04-18T08:03:19.883Z,91943.72
2024-04-18T08:04:57.810Z,91942.41
2024-04-18T08:06:34.487Z,91954.75
2024-04-18T08:08:10.726Z,91944.13
2024-04-18T08:09:48.090Z,91947.56
2024-04-18T08:11:52.887Z,91951.63
2024-04-18T08:13:17.519Z,91947.81
2024-04-18T08:14:55.509Z,91946.91
2024-04-18T08:16:31.501Z,91943.66
2024-04-18T08:18:03.358Z,91950.03
2024-04-18T08:19:35.363Z,91947.56
2024-04-18T08:21:08.515Z,91950.34
2024-04-18T08:22:40.572Z,91948.16
2024-04-18T08:24:20.327Z,91956.91
2024-04-18T08:25:52.488Z,91957.59
2024-04-18T08:27:24.411Z,91951.38
2024-04-18T08:28:57.620Z,91953.69
2024-04-18T08:30:30.166Z,91959.50
2024-04-18T08:32:01.964Z,91958.31
2024-04-18T08:33:33.871Z,91949.63
2024-04-18T08:35:05.701Z,91958.94
2024-04-18T08:36:37.463Z,91951.38
2024-04-18T08:38:09.936Z,91950.25
2024-04-18T08:39:44.099Z,91958.91
2024-04-18T08:41:17.500Z,91960.09
2024-04-18T08:42:49.548Z,91958.44
2024-04-18T08:44:21.249Z,91963.63
2024-04-18T08:45:53.177Z,91963.72
2024-04-18T08:47:25.561Z,91972.31
2024-04-18T08:48:57.627Z,91966.13
2024-04-18T08:50:32.633Z,91977.38
2024-04-18T08:52:05.167Z,91979.72
2024-04-18T08:53:36.959Z,91980.44
2024-04-18T08:55:09.263Z,91967.97
2024-04-18T08:56:43.240Z,91977.63
2024-04-18T08:58:15.020Z,91981.00
2024-04-18T08:59:47.269Z,91973.34
2024-04-18T09:01:18.987Z,91974.69
2024-04-18T09:02:51.043Z,91981.41
2024-04-18T09:04:22.974Z,91981.06
2024-04-18T09:05:54.679Z,91974.69
2024-04-18T09:07:26.673Z,91983.66
2024-04-18T09:08:58.357Z,91976.56
2024-04-18T09:10:30.338Z,91991.72
2024-04-18T09:12:04.211Z,91987.44
2024-04-18T09:13:36.241Z,91989.81
2024-04-18T09:15:09.141Z,91993.75
2024-04-18T09:16:40.896Z,91987.91
2024-04-18T09:18:12.772Z,91996.31
2024-04-18T09:19:44.703Z,91993.88
2024-04-18T09:21:16.463Z,91998.81
2024-04-18T09:22:48.445Z,91996.13
2024-04-18T09:24:20.427Z,91998.25
2024-04-18T09:25:55.196Z,91997.59
2024-04-18T09:27:26.928Z,92005.69
2024-04-18T09:28:58.883Z,92004.78
2024-04-18T09:30:31.280Z,92005.81
2024-04-18T09:32:03.580Z,92002.31
2024-04-18T09:33:35.708Z,92000.75
2024-04-18T09:35:08.547Z,92001.53
2024-04-18T09:36:41.783Z,91999.72
2024-04-18T09:38:14.384Z,92001.75
2024-04-18T09:39:50.009Z,92006.31
2024-04-18T09:41:24.000Z,91994.38
2024-04-18T09:42:59.727Z,91994.50
2024-04-18T09:44:32.401Z,91993.38
2024-04-18T09:46:04.675Z,91986.69
2024-04-18T09:47:36.777Z,91993.41
2024-04-18T09:49:08.904Z,91989.59
2024-04-18T09:50:40.639Z,91992.91
2024-04-18T09:52:12.288Z,91986.72
2024-04-18T09:53:44.544Z,91986.16
2024-04-18T09:55:16.838Z,91975.88
2024-04-18T09:56:48.573Z,91981.84
2024-04-18T09:58:20.528Z,91982.00
2024-04-18T09:59:52.495Z,91975.66
2024-04-18T10:01:24.280Z,91972.63
2024-04-18T10:02:56.269Z,91980.50
2024-04-18T10:04:28.063Z,91985.97
2024-04-18T10:06:01.149Z,91982.75
2024-04-18T10:07:33.243Z,91983.06
2024-04-18T10:09:07.092Z,91974.47
2024-04-18T10:10:42.713Z,91989.09
2024-04-18T10:12:14.496Z,91983.56
2024-04-18T10:13:46.624Z,91990.28
2024-04-18T10:15:20.248Z,91989.59
2024-04-18T10:16:52.387Z,91994.78
2024-04-18T10:18:33.759Z,91986.25
2024-04-18T10:20:09.406Z,91993.66
2024-04-18T10:21:49.845Z,91990.34
2024-04-18T10:23:33.933Z,91990.16
2024-04-18T10:25:06.011Z,91987.91
2024-04-18T10:26:39.043Z,91988.88
2024-04-18T10:28:24.484Z,91987.16
2024-04-18T10:29:59.304Z,91985.56
2024-04-18T10:31:30.947Z,91983.75
2024-04-18T10:33:03.047Z,91990.28
2024-04-18T10:34:34.802Z,91987.16
2024-04-18T10:36:11.119Z,91995.50
2024-04-18T10:37:50.008Z,91991.84
2024-04-18T10:39:31.485Z,91989.81
2024-04-18T10:41:03.733Z,91995.84
2024-04-18T10:42:38.575Z,91992.34
2024-04-18T10:44:10.386Z,91990.97
2024-04-18T10:45:45.159Z,91997.50
2024-04-18T10:47:25.619Z,92000.81
2024-04-18T10:48:58.907Z,91999.31
2024-04-18T10:50:33.485Z,92006.13
2024-04-18T10:52:10.626Z,92007.34
2024-04-18T10:53:42.303Z,92005.84
2024-04-18T10:55:14.205Z,92009.63
2024-04-18T10:56:45.881Z,92013.34
2024-04-18T10:58:18.569Z,92005.59
2024-04-18T10:59:50.634Z,92004.38
2024-04-18T11:01:23.071Z,92007.00
2024-04-18T11:02:58.583Z,92008.00
2024-04-18T11:04:30.686Z,92010.28
2024-04-18T11:06:04.410Z,92005.34
2024-04-18T11:07:36.275Z,92012.94
2024-04-18T11:09:08.820Z,92017.97
2024-04-18T11:10:40.955Z,92011.00
2024-04-18T11:12:12.975Z,92019.78
2024-04-18T11:13:44.985Z,92011.06
2024-04-18T11:15:17.261Z,92014.59
2024-04-18T11:16:58.664Z,92011.47
2024-04-18T11:18:31.236Z,92009.72
2024-04-18T11:20:03.389Z,92005.66
2024-04-18T11:21:35.158Z,92002.13
2024-04-18T11:23:13.736Z,92011.84
2024-04-18T11:24:47.616Z,92009.41
2024-04-18T11:26:21.102Z,92008.72
2024-04-18T11:27:53.185Z,92010.31
2024-04-18T11:29:30.612Z,92003.16
2024-04-18T11:31:02.409Z,92005.38
2024-04-18T11:32:34.970Z,92008.03
2024-04-18T11:34:06.915Z,92010.56
2024-04-18T11:35:38.862Z,92007.47
2024-04-18T11:37:14.909Z,92013.06
2024-04-18T11:38:48.054Z,92010.50
2024-04-18T11:40:19.829Z,92016.69
2024-04-18T11:41:51.842Z,92016.13
2024-04-18T11:43:23.727Z,92010.53
2024-04-18T11:44:55.964Z,92017.94
2024-04-18T11:46:27.948Z,92007.94
2024-04-18T11:48:00.230Z,92016.66
2024-04-18T11:49:32.233Z,92019.38
2024-04-18T11:51:04.649Z,92012.53
2024-04-18T11:52:36.621Z,92016.06
2024-04-18T11:54:08.312Z,92014.06
2024-04-18T11:55:39.968Z,92025.34
2024-04-18T11:57:12.352Z,92022.16
2024-04-18T11:58:44.331Z,92017.69
2024-04-18T12:00:16.462Z,92018.13
2024-04-18T12:01:48.160Z,92025.56
2024-04-18T12:03:21.372Z,92025.47
2024-04-18T12:04:53.323Z,92028.16
2024-04-18T12:06:25.214Z,92025.00
2024-04-18T12:07:57.105Z,92035.38
2024-04-18T12:09:29.362Z,92038.53
2024-04-18T12:11:01.536Z,92041.41
2024-04-18T12:12:33.263Z,92036.50
2024-04-18T12:14:06.772Z,92038.25
2024-04-18T12:15:39.870Z,92048.44
2024-04-18T12:17:12.152Z,92041.38
2024-04-18T12:18:44.199Z,92047.91
2024-04-18T12:20:16.919Z,92038.88
2024-04-18T12:21:49.378Z,92037.13
2024-04-18T12:23:21.386Z,92040.75
2024-04-18T12:24:53.177Z,92035.88
2024-04-18T12:26:24.922Z,92032.88
2024-04-18T12:27:56.728Z,92035.44
2024-04-18T12:29:28.513Z,92036.75
2024-04-18T12:31:00.701Z,92032.22
2024-04-18T12:32:32.502Z,92035.53
2024-04-18T12:34:04.371Z,92037.84
2024-04-18T12:35:36.051Z,92036.00
2024-04-18T12:37:08.056Z,92032.53
2024-04-18T12:38:39.861Z,92032.19
2024-04-18T12:40:12.087Z,92038.72
2024-04-18T12:41:43.926Z,92046.47
2024-04-18T12:43:16.044Z,92039.13
2024-04-18T12:44:47.788Z,92035.56
2024-04-18T12:46:23.672Z,92038.72
2024-04-18T12:48:01.160Z,92038.78
2024-04-18T12:49:32.974Z,92042.72
2024-04-18T12:51:06.910Z,92043.06
2024-04-18T12:52:38.844Z,92041.94
2024-04-18T12:54:10.909Z,92044.19
2024-04-18T12:55:43.178Z,92041.56
2024-04-18T12:57:15.024Z,92035.19
2024-04-18T12:58:46.845Z,92027.28
2024-04-18T13:00:18.693Z,92036.34
2024-04-18T13:01:50.424Z,92037.19
2024-04-18T13:03:22.577Z,92039.13
2024-04-18T13:04:54.442Z,92040.94
2024-04-18T13:06:27.999Z,92038.94
2024-04-18T13:07:59.841Z,92044.03
2024-04-18T13:09:31.917Z,92045.69
2024-04-18T13:11:04.459Z,92045.59
2024-04-18T13:12:36.266Z,92043.69
2024-04-18T13:14:08.609Z,92043.69
2024-04-18T13:15:40.277Z,92046.19
2024-04-18T13:17:12.116Z,92056.13
2024-04-18T13:18:44.787Z,92042.09
2024-04-18T13:20:17.301Z,92052.06
2024-04-18T13:21:49.315Z,92043.56
2024-04-18T13:23:23.051Z,92048.81
2024-04-18T13:24:54.762Z,92054.09
2024-04-18T13:26:26.411Z,92049.19
2024-04-18T13:28:00.123Z,92056.88
2024-04-18T13:29:31.950Z,92057.84
2024-04-18T13:31:03.807Z,92052.56
2024-04-18T13:32:36.794Z,92056.75
2024-04-18T13:34:08.629Z,92056.75
2024-04-18T13:35:40.902Z,92044.78
2024-04-18T13:37:12.940Z,92050.38
2024-04-18T13:38:44.691Z,92053.66
2024-04-18T13:40:17.242Z,92054.69
2024-04-18T13:41:49.104Z,92060.75
2024-04-18T13:43:20.997Z,92055.47
2024-04-18T13:44:53.758Z,92053.66
2024-04-18T13:46:25.447Z,92057.97
2024-04-18T13:47:57.282Z,92051.41
2024-04-18T13:49:29.024Z,92053.78
2024-04-18T13:51:02.236Z,92060.06
2024-04-18T13:52:33.990Z,92046.00
2024-04-18T13:54:06.501Z,92061.75
2024-04-18T13:55:38.215Z,92059.69
2024-04-18T13:57:09.865Z,92058.53
2024-04-18T13:58:41.621Z,92061.38
2024-04-18T14:00:13.406Z,92061.53
2024-04-18T14:01:45.214Z,92058.91
2024-04-18T14:03:19.476Z,92060.47
2024-04-18T14:04:51.437Z,92063.94
2024-04-18T14:06:23.163Z,92061.53
2024-04-18T14:07:54.875Z,92061.63
2024-04-18T14:09:35.188Z,92060.97
2024-04-18T14:11:07.030Z,92061.09
2024-04-18T14:12:38.795Z,92056.41
2024-04-18T14:14:10.906Z,92063.28
2024-04-18T14:16:02.701Z,92065.38
2024-04-18T14:17:53.079Z,92058.03
2024-04-18T14:19:25.804Z,92063.09
2024-04-18T14:20:57.702Z,92062.38
2024-04-18T14:22:29.515Z,92058.22
2024-04-18T14:24:03.460Z,92061.06
2024-04-18T14:25:35.217Z,92066.19
2024-04-18T14:27:07.105Z,92060.97
2024-04-18T14:28:38.924Z,92062.47
2024-04-18T14:30:11.507Z,92065.66
2024-04-18T14:31:43.205Z,92072.59
2024-04-18T14:33:15.124Z,92065.13
2024-04-18T14:34:47.348Z,92064.59
2024-04-18T14:36:19.253Z,92059.81
2024-04-18T14:37:50.907Z,92072.94
2024-04-18T14:39:22.674Z,92064.44
2024-04-18T14:41:02.055Z,92070.22
2024-04-18T14:42:41.560Z,92071.44
2024-04-18T14:44:13.533Z,92060.53
2024-04-18T14:45:45.736Z,92062.84
2024-04-18T14:47:17.638Z,92061.97
2024-04-18T14:48:49.970Z,92065.03
2024-04-18T14:50:21.705Z,92066.53
2024-04-18T14:51:53.344Z,92064.25
2024-04-18T14:53:27.248Z,92067.81
2024-04-18T14:54:59.467Z,92061.63
2024-04-18T14:56:31.147Z,92068.16
2024-04-18T14:58:03.142Z,92068.03
2024-04-18T14:59:34.979Z,92065.59
2024-04-18T15:01:06.735Z,92062.81
2024-04-18T15:02:38.528Z,92068.97
2024-04-18T15:04:10.270Z,92063.81
2024-04-18T15:05:48.937Z,92059.19
2024-04-18T15:07:20.877Z,92062.25
2024-04-18T15:08:53.741Z,92068.81
2024-04-18T15:10:26.103Z,92074.16
2024-04-18T15:11:57.857Z,92074.00
2024-04-18T15:13:29.560Z,92068.94
2024-04-18T15:15:01.281Z,92071.59
2024-04-18T15:16:33.342Z,92069.06
2024-04-18T15:18:05.366Z,92074.06
2024-04-18T15:19:37.279Z,92074.53
2024-04-18T15:21:09.571Z,92081.28
2024-04-18T15:22:41.255Z,92086.66
2024-04-18T15:24:13.492Z,92090.69
2024-04-18T15:25:45.638Z,92087.38
2024-04-18T15:27:17.379Z,92091.03
2024-04-18T15:28:49.114Z,92092.16
2024-04-18T15:30:20.772Z,92090.19
2024-04-18T15:31:52.552Z,92088.94
2024-04-18T15:33:24.366Z,92084.91
2024-04-18T15:34:56.218Z,92084.84
2024-04-18T15:36:28.056Z,92092.97
2024-04-18T15:37:59.709Z,92089.47
2024-04-18T15:39:31.390Z,92085.28
2024-04-18T15:41:03.131Z,92088.00
2024-04-18T15:42:34.945Z,92093.41
2024-04-18T15:44:07.550Z,92096.78
2024-04-18T15:45:42.155Z,92092.84
2024-04-18T15:47:13.996Z,92099.75
2024-04-18T15:48:45.912Z,92097.03
2024-04-18T15:50:18.015Z,92104.00
2024-04-18T15:51:49.729Z,92097.91
2024-04-18T15:53:21.537Z,92107.78
2024-04-18T15:55:04.636Z,92099.66
2024-04-18T15:56:44.552Z,92104.56
2024-04-18T15:58:16.594Z,92109.63
2024-04-18T15:59:48.352Z,92111.94
2024-04-18T16:01:20.043Z,92111.94
2024-04-18T16:02:54.128Z,92112.38
2024-04-18T16:04:27.616Z,92118.84
2024-04-18T16:05:59.448Z,92123.28
2024-04-18T16:07:31.171Z,92119.78
2024-04-18T16:09:03.078Z,92117.69
2024-04-18T16:10:34.989Z,92132.16
2024-04-18T16:12:06.809Z,92126.53
2024-04-18T16:13:38.660Z,92130.75
2024-04-18T16:15:10.555Z,92133.34
2024-04-18T16:16:42.743Z,92135.50
2024-04-18T16:18:14.556Z,92137.66
2024-04-18T16:19:48.275Z,92144.78
2024-04-18T16:21:20.180Z,92139.50
2024-04-18T16:22:51.857Z,92146.75
2024-04-18T16:24:23.647Z,92146.50
2024-04-18T16:25:55.376Z,92142.16
2024-04-18T16:27:27.167Z,92145.53
2024-04-18T16:28:58.902Z,92146.97
2024-04-18T16:30:31.974Z,92151.25
2024-04-18T16:32:03.918Z,92153.63
2024-04-18T16:33:38.033Z,92146.19
2024-04-18T16:35:09.827Z,92160.47
2024-04-18T16:36:52.640Z,92155.06
2024-04-18T16:38:32.035Z,92158.38
2024-04-18T16:40:03.949Z,92166.34
2024-04-18T16:41:35.601Z,92172.09
2024-04-18T16:43:07.491Z,92178.94
2024-04-18T16:44:39.185Z,92173.91
2024-04-18T16:46:11.390Z,92179.63
2024-04-18T16:47:43.156Z,92183.47
2024-04-18T16:49:14.999Z,92185.38
2024-04-18T16:50:46.842Z,92184.13
2024-04-18T16:52:18.562Z,92183.59
2024-04-18T16:53:54.059Z,92186.63
2024-04-18T16:55:25.866Z,92198.75
2024-04-18T16:56:57.610Z,92190.13
2024-04-18T16:58:29.381Z,92198.41
2024-04-18T17:00:01.107Z,92198.31
2024-04-18T17:01:32.826Z,92198.88
2024-04-18T17:03:05.762Z,92202.94
2024-04-18T17:04:37.787Z,92205.50
2024-04-18T17:06:12.052Z,92210.75
2024-04-18T17:07:44.097Z,92214.81
2024-04-18T17:09:16.433Z,92215.47
2024-04-18T17:10:48.188Z,92216.94
2024-04-18T17:12:20.193Z,92219.06
2024-04-18T17:13:53.461Z,92218.28
2024-04-18T17:15:26.348Z,92223.53
2024-04-18T17:16:58.055Z,92219.97
2024-04-18T17:18:29.900Z,92223.97
2024-04-18T17:20:02.220Z,92226.44
2024-04-18T17:21:36.417Z,92227.72
2024-04-18T17:23:08.289Z,92226.81
2024-04-18T17:24:41.087Z,92236.34
2024-04-18T17:26:12.787Z,92239.69
2024-04-18T17:27:44.543Z,92242.63
2024-04-18T17:29:16.418Z,92239.00
2024-04-18T17:30:48.313Z,92240.44
2024-04-18T17:32:20.014Z,92242.34
2024-04-18T17:33:51.723Z,92242.81
2024-04-18T17:35:23.427Z,92243.13
2024-04-18T17:36:55.138Z,92252.56
2024-04-18T17:38:26.959Z,92249.59
2024-04-18T17:39:58.741Z,92248.69
2024-04-18T17:41:30.916Z,92261.69
2024-04-18T17:43:02.783Z,92272.47
2024-04-18T17:44:34.464Z,92269.31
2024-04-18T17:46:06.283Z,92268.03
2024-04-18T17:47:38.145Z,92268.38
2024-04-18T17:49:10.033Z,92277.78
2024-04-18T17:50:42.067Z,92277.78
2024-04-18T17:52:14.021Z,92276.19
2024-04-18T17:53:45.876Z,92270.81
2024-04-18T17:55:18.678Z,92279.22
2024-04-18T17:56:50.613Z,92285.72
2024-04-18T17:58:22.884Z,92275.25
2024-04-18T17:59:54.654Z,92286.72
2024-04-18T18:01:26.361Z,92288.28
2024-04-18T18:02:58.258Z,92285.25
2024-04-18T18:04:30.421Z,92291.31
2024-04-18T18:06:02.756Z,92289.72
2024-04-18T18:07:34.519Z,92293.84
2024-04-18T18:09:09.852Z,92297.56